sensor_id;sensor_type;location;lat;lon;timestamp;P1;durP1;ratioP1;P2;durP2;ratioP2
60257;SDS011;46115;44.484;11.314;2022-08-19T00:01:00;16.15;;;14.23;;
60257;SDS011;46115;44.484;11.314;2022-08-19T00:05:03;16.38;;;14.25;;
60257;SDS011;46115;44.484;11.314;2022-08-19T00:09:07;18.95;;;16.30;;
60257;SDS011;46115;44.484;11.314;2022-08-19T00:13:11;14.63;;;11.68;;
60257;SDS011;46115;44.484;11.314;2022-08-19T00:17:15;16.25;;;11.75;;
60257;SDS011;46115;44.484;11.314;2022-08-19T00:21:18;14.15;;;11.30;;
60257;SDS011;46115;44.484;11.314;2022-08-19T00:25:20;14.90;;;11.57;;
60257;SDS011;46115;44.484;11.314;2022-08-19T00:29:23;12.70;;;11.25;;
60257;SDS011;46115;44.484;11.314;2022-08-19T00:33:28;13.18;;;11.73;;
60257;SDS011;46115;44.484;11.314;2022-08-19T00:37:31;17.30;;;11.80;;
60257;SDS011;46115;44.484;11.314;2022-08-19T00:41:35;10.57;;;8.05;;
60257;SDS011;46115;44.484;11.314;2022-08-19T00:45:37;5.35;;;4.18;;
60257;SDS011;46115;44.484;11.314;2022-08-19T00:49:44;5.70;;;4.03;;
60257;SDS011;46115;44.484;11.314;2022-08-19T00:53:52;6.32;;;4.53;;
60257;SDS011;46115;44.484;11.314;2022-08-19T00:57:55;5.18;;;3.80;;
60257;SDS011;46115;44.484;11.314;2022-08-19T01:02:03;6.07;;;2.95;;
60257;SDS011;46115;44.484;11.314;2022-08-19T01:06:07;2.65;;;1.80;;
60257;SDS011;46115;44.484;11.314;2022-08-19T01:10:11;7.28;;;2.15;;
60257;SDS011;46115;44.484;11.314;2022-08-19T01:14:16;8.43;;;2.25;;
60257;SDS011;46115;44.484;11.314;2022-08-19T01:18:19;3.90;;;1.80;;
60257;SDS011;46115;44.484;11.314;2022-08-19T01:22:28;7.38;;;2.42;;
60257;SDS011;46115;44.484;11.314;2022-08-19T01:26:37;8.32;;;1.98;;
60257;SDS011;46115;44.484;11.314;2022-08-19T01:30:42;7.88;;;1.98;;
60257;SDS011;46115;44.484;11.314;2022-08-19T01:34:44;10.07;;;2.42;;
60257;SDS011;46115;44.484;11.314;2022-08-19T01:38:49;8.05;;;2.25;;
60257;SDS011;46115;44.484;11.314;2022-08-19T01:42:52;9.80;;;2.15;;
60257;SDS011;46115;44.484;11.314;2022-08-19T01:46:55;9.45;;;2.20;;
60257;SDS011;46115;44.484;11.314;2022-08-19T01:50:57;7.57;;;2.00;;
60257;SDS011;46115;44.484;11.314;2022-08-19T01:55:03;11.02;;;2.00;;
60257;SDS011;46115;44.484;11.314;2022-08-19T01:59:08;5.65;;;2.08;;
60257;SDS011;46115;44.484;11.314;2022-08-19T02:03:14;7.20;;;2.28;;
60257;SDS011;46115;44.484;11.314;2022-08-19T02:07:18;10.30;;;2.78;;
60257;SDS011;46115;44.484;11.314;2022-08-19T02:11:23;10.90;;;2.90;;
60257;SDS011;46115;44.484;11.314;2022-08-19T02:15:28;11.43;;;2.90;;
60257;SDS011;46115;44.484;11.314;2022-08-19T02:19:30;8.77;;;2.70;;
60257;SDS011;46115;44.484;11.314;2022-08-19T02:23:34;10.13;;;2.75;;
60257;SDS011;46115;44.484;11.314;2022-08-19T02:27:38;12.40;;;3.50;;
60257;SDS011;46115;44.484;11.314;2022-08-19T02:31:41;12.65;;;2.80;;
60257;SDS011;46115;44.484;11.314;2022-08-19T02:35:44;9.52;;;3.10;;
60257;SDS011;46115;44.484;11.314;2022-08-19T02:39:47;10.50;;;2.72;;
60257;SDS011;46115;44.484;11.314;2022-08-19T02:43:51;11.38;;;2.95;;
60257;SDS011;46115;44.484;11.314;2022-08-19T02:47:54;11.30;;;3.63;;
60257;SDS011;46115;44.484;11.314;2022-08-19T02:51:57;9.10;;;2.50;;
60257;SDS011;46115;44.484;11.314;2022-08-19T02:56:00;10.10;;;2.50;;
60257;SDS011;46115;44.484;11.314;2022-08-19T03:00:05;11.07;;;2.47;;
60257;SDS011;46115;44.484;11.314;2022-08-19T03:04:09;8.85;;;2.30;;
60257;SDS011;46115;44.484;11.314;2022-08-19T03:08:15;9.48;;;2.53;;
60257;SDS011;46115;44.484;11.314;2022-08-19T03:12:17;12.73;;;2.63;;
60257;SDS011;46115;44.484;11.314;2022-08-19T03:16:22;8.93;;;2.38;;
60257;SDS011;46115;44.484;11.314;2022-08-19T03:20:26;10.27;;;2.42;;
60257;SDS011;46115;44.484;11.314;2022-08-19T03:24:28;12.65;;;3.00;;
60257;SDS011;46115;44.484;11.314;2022-08-19T03:28:31;12.60;;;2.50;;
60257;SDS011;46115;44.484;11.314;2022-08-19T03:32:36;12.60;;;2.95;;
60257;SDS011;46115;44.484;11.314;2022-08-19T03:36:38;8.73;;;2.30;;
60257;SDS011;46115;44.484;11.314;2022-08-19T03:40:41;13.30;;;3.00;;
60257;SDS011;46115;44.484;11.314;2022-08-19T03:44:43;11.38;;;2.50;;
60257;SDS011;46115;44.484;11.314;2022-08-19T03:48:48;9.25;;;2.20;;
60257;SDS011;46115;44.484;11.314;2022-08-19T03:52:54;13.73;;;3.50;;
60257;SDS011;46115;44.484;11.314;2022-08-19T03:56:57;11.88;;;2.90;;
60257;SDS011;46115;44.484;11.314;2022-08-19T04:01:00;13.02;;;2.53;;
60257;SDS011;46115;44.484;11.314;2022-08-19T04:05:04;12.98;;;3.35;;
60257;SDS011;46115;44.484;11.314;2022-08-19T04:09:09;11.32;;;2.42;;
60257;SDS011;46115;44.484;11.314;2022-08-19T04:13:13;12.27;;;2.63;;
60257;SDS011;46115;44.484;11.314;2022-08-19T04:17:16;11.50;;;2.72;;
60257;SDS011;46115;44.484;11.314;2022-08-19T04:21:20;17.08;;;3.40;;
60257;SDS011;46115;44.484;11.314;2022-08-19T04:25:24;13.05;;;3.10;;
60257;SDS011;46115;44.484;11.314;2022-08-19T04:29:27;11.68;;;2.97;;
60257;SDS011;46115;44.484;11.314;2022-08-19T04:33:30;10.52;;;3.00;;
60257;SDS011;46115;44.484;11.314;2022-08-19T04:37:34;13.00;;;3.10;;
60257;SDS011;46115;44.484;11.314;2022-08-19T04:41:37;12.60;;;2.92;;
60257;SDS011;46115;44.484;11.314;2022-08-19T04:45:56;13.73;;;3.33;;
60257;SDS011;46115;44.484;11.314;2022-08-19T04:49:59;14.93;;;3.30;;
60257;SDS011;46115;44.484;11.314;2022-08-19T04:54:03;17.67;;;4.10;;
60257;SDS011;46115;44.484;11.314;2022-08-19T04:58:06;18.05;;;3.83;;
60257;SDS011;46115;44.484;11.314;2022-08-19T05:02:08;16.63;;;3.92;;
60257;SDS011;46115;44.484;11.314;2022-08-19T05:06:12;17.25;;;4.07;;
60257;SDS011;46115;44.484;11.314;2022-08-19T05:10:18;15.18;;;3.97;;
60257;SDS011;46115;44.484;11.314;2022-08-19T05:14:21;15.02;;;3.80;;
60257;SDS011;46115;44.484;11.314;2022-08-19T05:18:23;18.33;;;3.97;;
60257;SDS011;46115;44.484;11.314;2022-08-19T05:22:44;17.50;;;4.20;;
60257;SDS011;46115;44.484;11.314;2022-08-19T05:26:50;18.17;;;3.75;;
60257;SDS011;46115;44.484;11.314;2022-08-19T05:30:53;12.82;;;3.13;;
60257;SDS011;46115;44.484;11.314;2022-08-19T05:34:56;12.57;;;3.17;;
60257;SDS011;46115;44.484;11.314;2022-08-19T05:38:58;11.27;;;3.08;;
60257;SDS011;46115;44.484;11.314;2022-08-19T05:43:02;17.30;;;3.70;;
60257;SDS011;46115;44.484;11.314;2022-08-19T05:47:06;15.60;;;4.15;;
60257;SDS011;46115;44.484;11.314;2022-08-19T05:51:09;10.57;;;3.42;;
60257;SDS011;46115;44.484;11.314;2022-08-19T05:55:11;9.70;;;3.05;;
60257;SDS011;46115;44.484;11.314;2022-08-19T05:59:16;9.40;;;3.08;;
60257;SDS011;46115;44.484;11.314;2022-08-19T06:03:18;8.90;;;2.40;;
60257;SDS011;46115;44.484;11.314;2022-08-19T06:07:21;7.18;;;2.50;;
60257;SDS011;46115;44.484;11.314;2022-08-19T06:11:24;7.30;;;2.30;;
60257;SDS011;46115;44.484;11.314;2022-08-19T06:15:36;8.33;;;2.10;;
60257;SDS011;46115;44.484;11.314;2022-08-19T06:19:39;4.90;;;2.10;;
60257;SDS011;46115;44.484;11.314;2022-08-19T06:23:44;5.57;;;1.80;;
60257;SDS011;46115;44.484;11.314;2022-08-19T06:27:48;6.30;;;2.00;;
60257;SDS011;46115;44.484;11.314;2022-08-19T06:31:55;7.25;;;1.77;;
60257;SDS011;46115;44.484;11.314;2022-08-19T06:35:59;4.43;;;1.67;;
60257;SDS011;46115;44.484;11.314;2022-08-19T06:40:02;5.20;;;1.40;;
60257;SDS011;46115;44.484;11.314;2022-08-19T06:44:07;6.32;;;1.98;;
60257;SDS011;46115;44.484;11.314;2022-08-19T06:48:11;6.30;;;1.85;;
60257;SDS011;46115;44.484;11.314;2022-08-19T06:52:13;5.32;;;1.60;;
60257;SDS011;46115;44.484;11.314;2022-08-19T06:56:17;11.20;;;1.70;;
60257;SDS011;46115;44.484;11.314;2022-08-19T07:00:21;7.53;;;1.77;;
60257;SDS011;46115;44.484;11.314;2022-08-19T07:04:26;5.00;;;1.92;;
60257;SDS011;46115;44.484;11.314;2022-08-19T07:08:32;4.07;;;1.40;;
60257;SDS011;46115;44.484;11.314;2022-08-19T07:12:37;2.28;;;0.88;;
60257;SDS011;46115;44.484;11.314;2022-08-19T07:16:40;1.88;;;0.70;;
60257;SDS011;46115;44.484;11.314;2022-08-19T07:20:44;3.80;;;1.10;;
60257;SDS011;46115;44.484;11.314;2022-08-19T07:24:46;2.55;;;1.00;;
60257;SDS011;46115;44.484;11.314;2022-08-19T07:28:49;3.00;;;0.98;;
60257;SDS011;46115;44.484;11.314;2022-08-19T07:32:51;2.95;;;0.80;;
60257;SDS011;46115;44.484;11.314;2022-08-19T07:36:55;2.85;;;0.80;;
60257;SDS011;46115;44.484;11.314;2022-08-19T07:40:58;2.80;;;0.70;;
60257;SDS011;46115;44.484;11.314;2022-08-19T07:45:01;2.65;;;0.52;;
60257;SDS011;46115;44.484;11.314;2022-08-19T07:49:04;1.23;;;0.50;;
60257;SDS011;46115;44.484;11.314;2022-08-19T07:53:09;1.60;;;0.50;;
60257;SDS011;46115;44.484;11.314;2022-08-19T07:57:12;2.45;;;0.68;;
60257;SDS011;46115;44.484;11.314;2022-08-19T08:01:16;2.05;;;0.60;;
60257;SDS011;46115;44.484;11.314;2022-08-19T08:05:22;2.22;;;0.35;;
60257;SDS011;46115;44.484;11.314;2022-08-19T08:09:43;0.60;;;0.30;;
60257;SDS011;46115;44.484;11.314;2022-08-19T08:13:47;1.05;;;0.50;;
60257;SDS011;46115;44.484;11.314;2022-08-19T08:17:50;2.55;;;0.43;;
60257;SDS011;46115;44.484;11.314;2022-08-19T08:21:53;2.30;;;0.60;;
60257;SDS011;46115;44.484;11.314;2022-08-19T08:25:58;1.50;;;0.50;;
60257;SDS011;46115;44.484;11.314;2022-08-19T08:30:01;1.45;;;0.50;;
60257;SDS011;46115;44.484;11.314;2022-08-19T08:34:03;0.65;;;0.30;;
60257;SDS011;46115;44.484;11.314;2022-08-19T08:38:05;2.53;;;0.50;;
60257;SDS011;46115;44.484;11.314;2022-08-19T08:42:11;1.60;;;0.60;;
60257;SDS011;46115;44.484;11.314;2022-08-19T08:46:22;1.73;;;0.50;;
60257;SDS011;46115;44.484;11.314;2022-08-19T08:50:37;2.38;;;0.52;;
60257;SDS011;46115;44.484;11.314;2022-08-19T08:54:44;2.67;;;0.60;;
60257;SDS011;46115;44.484;11.314;2022-08-19T08:58:54;3.35;;;0.68;;
60257;SDS011;46115;44.484;11.314;2022-08-19T09:03:00;3.08;;;0.80;;
60257;SDS011;46115;44.484;11.314;2022-08-19T09:07:09;4.10;;;0.90;;
60257;SDS011;46115;44.484;11.314;2022-08-19T09:11:23;2.03;;;0.68;;
60257;SDS011;46115;44.484;11.314;2022-08-19T09:15:38;3.95;;;0.90;;
60257;SDS011;46115;44.484;11.314;2022-08-19T09:19:49;3.40;;;1.00;;
60257;SDS011;46115;44.484;11.314;2022-08-19T09:23:54;3.83;;;0.82;;
60257;SDS011;46115;44.484;11.314;2022-08-19T09:27:58;2.92;;;0.80;;
60257;SDS011;46115;44.484;11.314;2022-08-19T09:32:05;3.00;;;0.70;;
60257;SDS011;46115;44.484;11.314;2022-08-19T09:36:09;4.72;;;0.70;;
60257;SDS011;46115;44.484;11.314;2022-08-19T09:40:13;2.45;;;0.70;;
60257;SDS011;46115;44.484;11.314;2022-08-19T09:44:16;2.78;;;0.82;;
60257;SDS011;46115;44.484;11.314;2022-08-19T09:48:22;4.13;;;0.95;;
60257;SDS011;46115;44.484;11.314;2022-08-19T09:52:24;1.48;;;0.60;;
60257;SDS011;46115;44.484;11.314;2022-08-19T09:56:27;2.58;;;0.85;;
60257;SDS011;46115;44.484;11.314;2022-08-19T10:00:30;2.20;;;0.80;;
60257;SDS011;46115;44.484;11.314;2022-08-19T10:04:34;3.63;;;0.90;;
60257;SDS011;46115;44.484;11.314;2022-08-19T10:08:54;3.35;;;0.90;;
60257;SDS011;46115;44.484;11.314;2022-08-19T10:12:57;3.28;;;0.85;;
60257;SDS011;46115;44.484;11.314;2022-08-19T10:17:00;2.65;;;0.80;;
60257;SDS011;46115;44.484;11.314;2022-08-19T10:21:06;2.47;;;0.80;;
60257;SDS011;46115;44.484;11.314;2022-08-19T10:25:11;2.40;;;0.60;;
60257;SDS011;46115;44.484;11.314;2022-08-19T10:29:15;1.83;;;0.60;;
60257;SDS011;46115;44.484;11.314;2022-08-19T10:33:18;3.15;;;0.90;;
60257;SDS011;46115;44.484;11.314;2022-08-19T10:37:21;2.45;;;0.80;;
60257;SDS011;46115;44.484;11.314;2022-08-19T10:41:26;2.92;;;0.70;;
60257;SDS011;46115;44.484;11.314;2022-08-19T10:45:30;1.80;;;0.60;;
60257;SDS011;46115;44.484;11.314;2022-08-19T10:49:32;2.55;;;0.70;;
60257;SDS011;46115;44.484;11.314;2022-08-19T10:53:56;3.08;;;0.80;;
60257;SDS011;46115;44.484;11.314;2022-08-19T10:57:59;1.52;;;0.80;;
60257;SDS011;46115;44.484;11.314;2022-08-19T11:02:03;2.70;;;1.00;;
60257;SDS011;46115;44.484;11.314;2022-08-19T11:06:07;3.33;;;0.90;;
60257;SDS011;46115;44.484;11.314;2022-08-19T11:10:12;2.53;;;0.90;;
60257;SDS011;46115;44.484;11.314;2022-08-19T11:14:20;3.13;;;0.85;;
60257;SDS011;46115;44.484;11.314;2022-08-19T11:18:23;3.33;;;1.08;;
60257;SDS011;46115;44.484;11.314;2022-08-19T11:22:25;1.77;;;0.73;;
60257;SDS011;46115;44.484;11.314;2022-08-19T11:26:29;1.05;;;0.70;;
60257;SDS011;46115;44.484;11.314;2022-08-19T11:30:32;3.50;;;0.70;;
60257;SDS011;46115;44.484;11.314;2022-08-19T11:34:35;1.95;;;0.80;;
60257;SDS011;46115;44.484;11.314;2022-08-19T11:38:38;3.03;;;0.85;;
60257;SDS011;46115;44.484;11.314;2022-08-19T11:42:42;1.95;;;0.63;;
60257;SDS011;46115;44.484;11.314;2022-08-19T11:46:57;2.45;;;0.60;;
60257;SDS011;46115;44.484;11.314;2022-08-19T11:51:03;2.05;;;0.70;;
60257;SDS011;46115;44.484;11.314;2022-08-19T11:55:08;3.97;;;0.60;;
60257;SDS011;46115;44.484;11.314;2022-08-19T11:59:12;2.25;;;0.60;;
60257;SDS011;46115;44.484;11.314;2022-08-19T12:03:14;1.92;;;0.60;;
60257;SDS011;46115;44.484;11.314;2022-08-19T12:07:17;2.45;;;0.60;;
60257;SDS011;46115;44.484;11.314;2022-08-19T12:11:19;4.22;;;0.70;;
60257;SDS011;46115;44.484;11.314;2022-08-19T12:15:25;1.90;;;0.70;;
60257;SDS011;46115;44.484;11.314;2022-08-19T12:19:29;2.63;;;0.65;;
60257;SDS011;46115;44.484;11.314;2022-08-19T12:23:32;3.55;;;0.60;;
60257;SDS011;46115;44.484;11.314;2022-08-19T12:27:34;1.70;;;0.68;;
60257;SDS011;46115;44.484;11.314;2022-08-19T12:31:38;1.00;;;0.50;;
60257;SDS011;46115;44.484;11.314;2022-08-19T12:35:41;2.03;;;0.68;;
60257;SDS011;46115;44.484;11.314;2022-08-19T12:39:44;2.40;;;0.63;;
60257;SDS011;46115;44.484;11.314;2022-08-19T12:43:47;2.30;;;0.57;;
60257;SDS011;46115;44.484;11.314;2022-08-19T12:47:51;1.08;;;0.50;;
60257;SDS011;46115;44.484;11.314;2022-08-19T12:51:53;2.38;;;0.50;;
60257;SDS011;46115;44.484;11.314;2022-08-19T12:55:56;2.30;;;0.57;;
60257;SDS011;46115;44.484;11.314;2022-08-19T13:00:03;2.50;;;0.60;;
60257;SDS011;46115;44.484;11.314;2022-08-19T13:04:11;3.53;;;0.70;;
60257;SDS011;46115;44.484;11.314;2022-08-19T13:08:14;2.53;;;0.60;;
60257;SDS011;46115;44.484;11.314;2022-08-19T13:12:16;1.52;;;0.60;;
60257;SDS011;46115;44.484;11.314;2022-08-19T13:16:21;1.98;;;0.63;;
60257;SDS011;46115;44.484;11.314;2022-08-19T13:20:25;1.77;;;0.55;;
60257;SDS011;46115;44.484;11.314;2022-08-19T13:24:28;1.55;;;0.50;;
60257;SDS011;46115;44.484;11.314;2022-08-19T13:28:30;2.33;;;0.63;;
60257;SDS011;46115;44.484;11.314;2022-08-19T13:32:47;1.50;;;0.50;;
60257;SDS011;46115;44.484;11.314;2022-08-19T13:37:08;1.45;;;0.63;;
60257;SDS011;46115;44.484;11.314;2022-08-19T13:41:10;1.80;;;0.68;;
60257;SDS011;46115;44.484;11.314;2022-08-19T13:45:14;1.52;;;0.65;;
60257;SDS011;46115;44.484;11.314;2022-08-19T13:49:17;2.83;;;0.60;;
60257;SDS011;46115;44.484;11.314;2022-08-19T13:53:21;3.80;;;0.90;;
60257;SDS011;46115;44.484;11.314;2022-08-19T13:57:24;2.50;;;0.60;;
60257;SDS011;46115;44.484;11.314;2022-08-19T14:01:26;1.70;;;0.80;;
60257;SDS011;46115;44.484;11.314;2022-08-19T14:05:30;3.03;;;0.70;;
60257;SDS011;46115;44.484;11.314;2022-08-19T14:09:35;1.67;;;0.68;;
60257;SDS011;46115;44.484;11.314;2022-08-19T14:13:37;1.77;;;0.68;;
60257;SDS011;46115;44.484;11.314;2022-08-19T14:17:40;2.50;;;0.80;;
60257;SDS011;46115;44.484;11.314;2022-08-19T14:21:43;3.35;;;0.70;;
60257;SDS011;46115;44.484;11.314;2022-08-19T14:25:47;3.88;;;0.80;;
60257;SDS011;46115;44.484;11.314;2022-08-19T14:29:49;1.27;;;0.57;;
60257;SDS011;46115;44.484;11.314;2022-08-19T14:33:52;2.88;;;0.60;;
60257;SDS011;46115;44.484;11.314;2022-08-19T14:37:55;1.40;;;0.60;;
60257;SDS011;46115;44.484;11.314;2022-08-19T14:41:59;1.50;;;0.60;;
60257;SDS011;46115;44.484;11.314;2022-08-19T14:46:02;2.17;;;0.60;;
60257;SDS011;46115;44.484;11.314;2022-08-19T14:50:05;2.72;;;0.70;;
60257;SDS011;46115;44.484;11.314;2022-08-19T14:54:08;2.35;;;0.60;;
60257;SDS011;46115;44.484;11.314;2022-08-19T14:58:12;1.30;;;0.60;;
60257;SDS011;46115;44.484;11.314;2022-08-19T15:02:15;2.22;;;0.60;;
60257;SDS011;46115;44.484;11.314;2022-08-19T15:06:18;1.90;;;0.65;;
60257;SDS011;46115;44.484;11.314;2022-08-19T15:10:21;3.60;;;0.70;;
60257;SDS011;46115;44.484;11.314;2022-08-19T15:14:26;2.40;;;0.70;;
60257;SDS011;46115;44.484;11.314;2022-08-19T15:18:34;2.33;;;0.70;;
60257;SDS011;46115;44.484;11.314;2022-08-19T15:22:37;2.38;;;0.60;;
60257;SDS011;46115;44.484;11.314;2022-08-19T15:26:39;1.42;;;0.77;;
60257;SDS011;46115;44.484;11.314;2022-08-19T15:30:44;1.83;;;0.70;;
60257;SDS011;46115;44.484;11.314;2022-08-19T15:34:47;3.10;;;0.70;;
60257;SDS011;46115;44.484;11.314;2022-08-19T15:38:49;3.30;;;0.80;;
60257;SDS011;46115;44.484;11.314;2022-08-19T15:42:52;1.50;;;0.60;;
60257;SDS011;46115;44.484;11.314;2022-08-19T15:46:56;3.20;;;0.70;;
60257;SDS011;46115;44.484;11.314;2022-08-19T15:50:59;2.50;;;0.77;;
60257;SDS011;46115;44.484;11.314;2022-08-19T15:55:03;1.80;;;0.70;;
60257;SDS011;46115;44.484;11.314;2022-08-19T15:59:07;3.65;;;0.75;;
60257;SDS011;46115;44.484;11.314;2022-08-19T16:03:28;1.70;;;0.90;;
60257;SDS011;46115;44.484;11.314;2022-08-19T16:07:48;2.72;;;0.80;;
60257;SDS011;46115;44.484;11.314;2022-08-19T16:11:51;1.92;;;0.70;;
60257;SDS011;46115;44.484;11.314;2022-08-19T16:15:53;2.10;;;1.00;;
60257;SDS011;46115;44.484;11.314;2022-08-19T16:19:58;4.50;;;0.80;;
60257;SDS011;46115;44.484;11.314;2022-08-19T16:24:02;2.70;;;0.75;;
60257;SDS011;46115;44.484;11.314;2022-08-19T16:28:06;2.05;;;0.90;;
60257;SDS011;46115;44.484;11.314;2022-08-19T16:32:10;3.72;;;0.70;;
60257;SDS011;46115;44.484;11.314;2022-08-19T16:36:14;3.13;;;0.60;;
60257;SDS011;46115;44.484;11.314;2022-08-19T16:40:17;3.03;;;0.68;;
60257;SDS011;46115;44.484;11.314;2022-08-19T16:44:20;2.92;;;0.60;;
60257;SDS011;46115;44.484;11.314;2022-08-19T16:48:23;2.97;;;0.70;;
60257;SDS011;46115;44.484;11.314;2022-08-19T16:52:30;1.98;;;0.80;;
60257;SDS011;46115;44.484;11.314;2022-08-19T16:56:33;4.32;;;0.80;;
60257;SDS011;46115;44.484;11.314;2022-08-19T17:00:36;1.92;;;0.60;;
60257;SDS011;46115;44.484;11.314;2022-08-19T17:04:39;2.17;;;0.65;;
60257;SDS011;46115;44.484;11.314;2022-08-19T17:08:43;1.33;;;0.50;;
60257;SDS011;46115;44.484;11.314;2022-08-19T17:12:45;2.13;;;0.60;;
60257;SDS011;46115;44.484;11.314;2022-08-19T17:16:48;3.92;;;0.70;;
60257;SDS011;46115;44.484;11.314;2022-08-19T17:20:51;2.22;;;0.80;;
60257;SDS011;46115;44.484;11.314;2022-08-19T17:24:55;2.92;;;0.80;;
60257;SDS011;46115;44.484;11.314;2022-08-19T17:28:58;4.75;;;0.80;;
60257;SDS011;46115;44.484;11.314;2022-08-19T17:33:01;2.80;;;0.70;;
60257;SDS011;46115;44.484;11.314;2022-08-19T17:37:04;2.33;;;0.70;;
60257;SDS011;46115;44.484;11.314;2022-08-19T17:41:08;3.25;;;0.80;;
60257;SDS011;46115;44.484;11.314;2022-08-19T17:45:11;3.22;;;0.63;;
60257;SDS011;46115;44.484;11.314;2022-08-19T17:49:15;4.93;;;0.80;;
60257;SDS011;46115;44.484;11.314;2022-08-19T17:53:17;3.92;;;0.75;;
60257;SDS011;46115;44.484;11.314;2022-08-19T17:57:21;2.65;;;0.80;;
60257;SDS011;46115;44.484;11.314;2022-08-19T18:01:24;3.75;;;0.85;;
60257;SDS011;46115;44.484;11.314;2022-08-19T18:05:27;4.90;;;0.80;;
60257;SDS011;46115;44.484;11.314;2022-08-19T18:09:33;6.28;;;1.58;;
60257;SDS011;46115;44.484;11.314;2022-08-19T18:13:38;3.88;;;0.80;;
60257;SDS011;46115;44.484;11.314;2022-08-19T18:17:41;4.50;;;0.88;;
60257;SDS011;46115;44.484;11.314;2022-08-19T18:21:43;3.30;;;0.80;;
60257;SDS011;46115;44.484;11.314;2022-08-19T18:25:46;2.25;;;0.73;;
60257;SDS011;46115;44.484;11.314;2022-08-19T18:29:50;3.28;;;0.60;;
60257;SDS011;46115;44.484;11.314;2022-08-19T18:33:54;6.13;;;0.95;;
60257;SDS011;46115;44.484;11.314;2022-08-19T18:37:57;2.17;;;0.90;;
60257;SDS011;46115;44.484;11.314;2022-08-19T18:42:01;3.40;;;0.80;;
60257;SDS011;46115;44.484;11.314;2022-08-19T18:46:23;1.92;;;0.90;;
60257;SDS011;46115;44.484;11.314;2022-08-19T18:50:42;1.70;;;0.70;;
60257;SDS011;46115;44.484;11.314;2022-08-19T18:54:45;5.25;;;0.70;;
60257;SDS011;46115;44.484;11.314;2022-08-19T22:06:08;2.45;;;0.80;;
60257;SDS011;46115;44.484;11.314;2022-08-19T22:10:10;4.05;;;0.90;;
60257;SDS011;46115;44.484;11.314;2022-08-19T22:14:13;2.50;;;1.00;;
60257;SDS011;46115;44.484;11.314;2022-08-19T22:18:15;4.10;;;0.90;;
60257;SDS011;46115;44.484;11.314;2022-08-19T22:22:21;2.33;;;0.82;;
60257;SDS011;46115;44.484;11.314;2022-08-19T22:26:25;4.05;;;0.90;;
60257;SDS011;46115;44.484;11.314;2022-08-19T22:30:28;5.20;;;1.10;;
60257;SDS011;46115;44.484;11.314;2022-08-19T22:34:31;3.22;;;0.90;;
60257;SDS011;46115;44.484;11.314;2022-08-19T22:38:35;6.85;;;1.00;;
60257;SDS011;46115;44.484;11.314;2022-08-19T22:42:38;2.72;;;0.80;;
60257;SDS011;46115;44.484;11.314;2022-08-19T22:46:41;2.92;;;0.90;;
60257;SDS011;46115;44.484;11.314;2022-08-19T22:50:44;5.82;;;1.00;;
60257;SDS011;46115;44.484;11.314;2022-08-19T22:55:09;3.78;;;1.00;;
60257;SDS011;46115;44.484;11.314;2022-08-19T22:59:12;1.63;;;0.80;;
60257;SDS011;46115;44.484;11.314;2022-08-19T23:03:14;3.72;;;1.00;;
60257;SDS011;46115;44.484;11.314;2022-08-19T23:07:17;3.72;;;1.10;;
60257;SDS011;46115;44.484;11.314;2022-08-19T23:11:23;3.17;;;0.88;;
60257;SDS011;46115;44.484;11.314;2022-08-19T23:15:26;3.10;;;1.15;;
60257;SDS011;46115;44.484;11.314;2022-08-19T23:19:30;5.18;;;1.10;;
60257;SDS011;46115;44.484;11.314;2022-08-19T23:23:34;4.93;;;1.08;;
60257;SDS011;46115;44.484;11.314;2022-08-19T23:27:38;5.00;;;1.20;;
60257;SDS011;46115;44.484;11.314;2022-08-19T23:31:58;3.00;;;0.90;;
60257;SDS011;46115;44.484;11.314;2022-08-19T23:36:04;3.85;;;1.00;;
60257;SDS011;46115;44.484;11.314;2022-08-19T23:40:09;2.85;;;1.10;;
60257;SDS011;46115;44.484;11.314;2022-08-19T23:44:13;5.20;;;1.20;;
60257;SDS011;46115;44.484;11.314;2022-08-19T23:48:15;4.80;;;1.02;;
60257;SDS011;46115;44.484;11.314;2022-08-19T23:52:18;6.35;;;1.17;;
60257;SDS011;46115;44.484;11.314;2022-08-19T23:56:20;2.95;;;1.20;;
